MST,Max TemperatureF,Mean TemperatureF,Min TemperatureF,Max Dew PointF,MeanDew PointF,Min DewpointF,Max Humidity, Mean Humidity, Min Humidity, Max Sea Level PressureIn, Mean Sea Level PressureIn, Min Sea Level PressureIn, Max VisibilityMiles, Mean VisibilityMiles, Min VisibilityMiles, Max Wind SpeedMPH, Mean Wind SpeedMPH, Max Gust SpeedMPH,PrecipitationIn, CloudCover, Events, WindDirDegrees
2013-2-1,64,46,28,25,21,15,75,40,15,30.25,30.18,30.10,10,10,10,12,5,,0.00,0,,121
2013-2-2,68,49,30,24,22,20,69,38,16,30.31,30.21,30.14,10,10,10,10,3,,0.00,0,,124
2013-2-3,64,58,51,28,20,13,38,26,14,30.13,30.01,29.90,10,10,10,14,8,,0.00,3,,126
2013-2-4,68,57,46,38,36,29,68,49,32,30.01,29.94,29.87,10,10,10,8,3,,0.01,2,,218
2013-2-5,70,54,37,34,32,29,79,49,22,30.02,29.94,29.86,10,10,10,7,3,,0.00,0,,62
2013-2-6,66,52,39,36,33,29,67,48,30,29.96,29.90,29.84,10,10,10,14,5,,0.00,0,,327
2013-2-7,66,52,37,38,31,25,79,49,22,30.09,30.00,29.94,10,10,10,8,3,,0.00,0,,119
2013-2-8,69,58,46,27,17,4,44,25,8,29.92,29.79,29.67,10,10,10,20,11,28,0.00,0,,147
2013-2-9,48,42,35,34,26,18,89,55,29,30.00,29.83,29.65,10,10,8,29,16,38,0.00,4,Rain,321
2013-2-10,52,38,24,24,20,16,81,49,25,30.03,29.97,29.90,10,10,10,9,4,,0.00,1,,97
2013-2-11,53,38,24,36,24,12,93,60,20,30.05,29.99,29.93,10,10,10,21,6,29,0.01,3,Rain,303
2013-2-12,51,40,28,28,18,11,79,47,20,30.23,30.15,30.05,10,10,10,17,10,,0.00,0,,310
2013-2-13,57,40,24,17,13,8,60,36,14,30.22,30.13,30.04,10,10,10,10,3,,0.00,0,,278
2013-2-14,64,45,26,20,16,10,55,34,17,30.14,30.07,29.98,10,10,10,18,5,23,0.00,0,,325
2013-2-15,66,50,34,19,11,2,48,26,8,30.28,30.19,30.12,10,10,10,10,2,17,0.00,0,,71
2013-2-16,69,52,36,11,5,-1,33,18,7,30.35,30.20,30.04,10,10,10,15,8,18,0.00,0,,136
2013-2-17,71,56,41,11,7,0,26,16,7,30.02,29.88,29.73,10,10,10,21,12,30,0.00,0,,180
2013-2-18,66,50,34,12,8,5,34,18,9,30.03,29.94,29.88,10,10,10,13,7,,0.00,0,,34
2013-2-19,71,55,39,37,21,9,47,27,10,29.90,29.76,29.59,10,9,4,33,14,40,0.00,2,,149
2013-2-20,54,44,33,32,29,19,93,69,29,29.86,29.70,29.57,10,7,0,26,14,41,0.08,5,Fog-Rain-Snow,291
2013-2-21,48,39,30,31,28,26,92,66,44,30.03,29.96,29.86,10,10,10,16,8,21,0.00,5,,299
2013-2-22,54,40,27,31,26,21,92,60,28,30.12,30.03,29.95,10,10,10,21,7,32,0.00,1,,314
2013-2-23,59,43,27,25,22,17,81,46,20,30.10,29.95,29.76,10,10,10,18,5,,0.00,0,,312
2013-2-24,46,39,32,36,25,14,93,59,30,30.04,29.84,29.71,10,9,2,36,16,54,0.01,4,Rain-Snow,309
2013-2-25,57,42,27,17,14,11,61,36,16,30.18,30.06,29.98,10,10,10,15,10,21,0.00,0,,307
2013-2-26,63,44,24,19,13,5,65,34,11,30.04,29.95,29.83,10,10,10,26,7,38,0.00,0,,318
2013-2-27,57,42,28,4,-1,-7,31,17,7,30.23,30.14,30.05,10,10,10,10,6,16,0.00,0,,318
2013-2-28,63,44,26,7,3,-3,39,20,7,30.31,30.23,30.17,10,10,10,12,5,,0.00,0,,313